首页
METAR-TAF:

METAR-TAF

机场 :

恩斯河谷艾根

Aigen im Ennstal, 奥地利

纬度: 47-32N, 经度: 014-08E, 海拔: 638米

METAR: 丢失

时间: 05:21 (04:21 UTC)

预报

该预报发布于17小时和6分钟前的11:15 UTC
预报有效从20日的 12点(UTC)到 20日的 21点(UTC)
风速3节,风向多变
能见度10公里或以上
少量云层高于4000英尺
多云层高于6500英尺
成为
从 20日的 15点(UTC)到 20日的 18点(UTC)
少量云层高于9000英尺

TAF: LOXA 201115Z 2012/2021 VRB03KT 9999 FEW040 BKN065 BECMG 2015/2018 FEW090

超过4000个机场的气象观测和天气预报(METAR&TAF报告)。

可查询的气象台以黄色和红色小点在地图上表示。

将鼠标移到小点上方,可查看气象台名称。

然后点击查看天气观测和预报。

如需切换地图:点击带黑十字的绿色按钮放大地图;点击带横线的绿色按钮缩小地图;或者点击绿色箭头查看邻近地区的地图。


METAR-TAF: